createdAt,value
2023-04-10T00:01:37.099Z,57.53
2023-04-10T00:04:53.478Z,56.80
2023-04-10T00:08:09.966Z,56.68
2023-04-10T00:11:26.380Z,58.13
2023-04-10T00:14:42.722Z,56.95
2023-04-10T00:17:59.831Z,57.00
2023-04-10T00:21:16.856Z,56.60
2023-04-10T00:24:33.282Z,54.63
2023-04-10T00:27:49.604Z,53.63
2023-04-10T00:31:08.323Z,56.50
2023-04-10T00:34:24.618Z,57.88
2023-04-10T00:37:42.803Z,58.30
2023-04-10T00:40:59.117Z,57.33
2023-04-10T00:44:15.346Z,58.20
2023-04-10T00:47:31.919Z,62.63
2023-04-10T00:50:48.484Z,57.20
2023-04-10T00:54:04.884Z,58.80
2023-04-10T00:57:21.486Z,61.35
2023-04-10T01:00:38.384Z,56.98
2023-04-10T01:03:55.472Z,62.90
2023-04-10T01:07:21.324Z,61.43
2023-04-10T01:10:42.762Z,63.35
2023-04-10T01:14:07.019Z,65.60
2023-04-10T01:17:28.892Z,65.70
2023-04-10T01:20:48.330Z,65.35
2023-04-10T01:24:21.803Z,66.38
2023-04-10T01:27:49.357Z,68.25
2023-04-10T01:31:09.224Z,66.53
2023-04-10T01:34:30.603Z,68.55
2023-04-10T01:37:49.944Z,67.20
2023-04-10T01:41:08.146Z,71.98
2023-04-10T01:44:29.657Z,69.53
2023-04-10T01:47:46.619Z,76.25
2023-04-10T01:51:06.159Z,75.23
2023-04-10T01:57:37.333Z,72.15
2023-04-10T02:00:53.942Z,77.15
2023-04-10T02:04:12.234Z,76.85
2023-04-10T02:07:33.147Z,74.60
2023-04-10T02:10:55.942Z,77.58
2023-04-10T02:14:17.394Z,79.05
2023-04-10T02:17:38.181Z,76.08
2023-04-10T02:20:55.237Z,84.03
2023-04-10T02:24:11.843Z,87.03
2023-04-10T02:27:37.834Z,85.75
2023-04-10T02:30:54.340Z,86.90
2023-04-10T02:34:10.613Z,84.30
2023-04-10T02:37:27.266Z,81.05
2023-04-10T02:40:43.761Z,88.00
2023-04-10T02:44:03.706Z,88.03
2023-04-10T02:47:20.311Z,83.05
2023-04-10T02:50:37.360Z,86.60
2023-04-10T02:53:54.211Z,85.00
2023-04-10T02:57:12.681Z,88.08
2023-04-10T03:00:30.893Z,91.38
2023-04-10T03:03:51.647Z,101.33
2023-04-10T03:07:10.194Z,95.23
2023-04-10T03:10:27.146Z,91.95
2023-04-10T03:13:43.688Z,94.65
2023-04-10T03:16:59.945Z,91.13
2023-04-10T03:20:20.121Z,94.60
2023-04-10T03:23:38.000Z,92.68
2023-04-10T03:26:54.662Z,99.20
2023-04-10T03:30:12.549Z,96.08
2023-04-10T03:33:29.762Z,95.75
2023-04-10T03:36:47.735Z,95.13
2023-04-10T03:40:04.224Z,98.43
2023-04-10T03:43:20.815Z,100.35
2023-04-10T03:46:38.323Z,103.60
2023-04-10T03:49:55.518Z,105.53
2023-04-10T03:53:12.224Z,105.48
2023-04-10T03:56:29.399Z,104.40
2023-04-10T03:59:47.340Z,98.00
2023-04-10T04:03:06.016Z,98.78
2023-04-10T04:06:40.591Z,112.98
2023-04-10T04:09:58.543Z,108.43
2023-04-10T04:13:32.584Z,103.90
2023-04-10T04:16:56.395Z,95.28
2023-04-10T04:20:27.039Z,108.63
2023-04-10T04:24:01.480Z,97.20
2023-04-10T04:27:23.551Z,103.75
2023-04-10T04:34:06.252Z,101.45
2023-04-10T04:37:33.611Z,104.48
2023-04-10T04:40:50.170Z,102.60
2023-04-10T04:44:26.106Z,108.85
2023-04-10T04:47:43.694Z,106.33
2023-04-10T04:51:01.075Z,108.68
2023-04-10T04:54:39.122Z,114.95
2023-04-10T04:58:01.303Z,114.53
2023-04-10T05:10:27.294Z,121.15
2023-04-10T05:26:14.614Z,120.75
2023-04-10T05:29:54.902Z,117.03
2023-04-10T05:33:29.315Z,118.98
2023-04-10T05:36:59.586Z,108.23
2023-04-10T05:40:36.794Z,125.98
2023-04-10T05:44:13.679Z,116.30
2023-04-10T05:47:50.497Z,118.83
2023-04-10T05:51:08.666Z,118.38
2023-04-10T05:54:27.425Z,115.48
2023-04-10T05:58:03.924Z,111.38
2023-04-10T06:01:22.046Z,101.95
2023-04-10T06:04:40.257Z,98.93
2023-04-10T06:07:58.324Z,99.20
2023-04-10T06:11:15.610Z,95.03
2023-04-10T06:14:33.624Z,98.30
2023-04-10T06:17:54.884Z,86.33
2023-04-10T06:21:11.863Z,80.18
2023-04-10T06:24:28.219Z,87.78
2023-04-10T06:27:45.434Z,84.00
2023-04-10T06:31:04.088Z,81.13
2023-04-10T06:34:22.266Z,81.40
2023-04-10T06:37:41.007Z,77.00
2023-04-10T06:40:57.393Z,82.30
2023-04-10T06:44:13.859Z,78.78
2023-04-10T06:47:30.358Z,74.23
2023-04-10T06:54:03.317Z,72.58
2023-04-10T06:57:19.950Z,75.33
2023-04-10T07:00:37.314Z,73.03
2023-04-10T07:03:54.080Z,73.68
2023-04-10T07:07:12.711Z,80.10
2023-04-10T07:10:29.253Z,76.03
2023-04-10T07:13:45.647Z,76.53
2023-04-10T07:17:02.058Z,72.93
2023-04-10T07:20:20.206Z,81.70
2023-04-10T07:23:36.857Z,77.73
2023-04-10T07:26:53.545Z,72.03
2023-04-10T07:30:12.275Z,75.10
2023-04-10T07:33:29.031Z,78.98
2023-04-10T07:36:46.142Z,82.15
2023-04-10T07:40:03.398Z,89.13
2023-04-10T07:43:20.280Z,85.13
2023-04-10T07:46:37.195Z,78.93
2023-04-10T07:49:53.727Z,81.25
2023-04-10T07:53:10.323Z,89.67
2023-04-10T07:56:30.271Z,79.53
2023-04-10T07:59:46.858Z,87.95
2023-04-10T08:03:03.551Z,82.03
2023-04-10T08:06:20.847Z,84.70
2023-04-10T08:09:37.323Z,79.53
2023-04-10T08:12:53.820Z,80.70
2023-04-10T08:16:11.465Z,84.40
2023-04-10T08:19:27.911Z,86.40
2023-04-10T08:22:49.595Z,81.23
2023-04-10T08:26:06.441Z,81.23
2023-04-10T08:32:40.234Z,83.75
2023-04-10T08:35:59.303Z,77.98
2023-04-10T08:39:15.816Z,83.88
2023-04-10T08:42:34.511Z,80.92
2023-04-10T08:45:52.323Z,85.87
2023-04-10T08:49:11.595Z,123.18
2023-04-10T08:52:32.189Z,92.40
2023-04-10T08:55:49.946Z,81.08
2023-04-10T08:59:07.382Z,89.15
2023-04-10T09:02:24.324Z,88.23
2023-04-10T09:05:43.432Z,96.03
2023-04-10T09:12:18.195Z,93.97
2023-04-10T09:15:35.198Z,91.65
2023-04-10T09:18:57.601Z,90.88
2023-04-10T09:22:14.520Z,88.33
2023-04-10T09:25:42.699Z,87.28
2023-04-10T09:29:11.681Z,96.03
2023-04-10T09:32:47.720Z,94.85
2023-04-10T09:36:06.408Z,95.10
2023-04-10T09:39:22.928Z,96.53
2023-04-10T09:42:45.155Z,127.63
2023-04-10T09:46:04.937Z,116.78
2023-04-10T09:49:21.701Z,112.50
2023-04-10T09:52:40.183Z,111.13
2023-04-10T09:55:57.704Z,111.57
2023-04-10T09:59:15.103Z,103.33
2023-04-10T10:02:34.933Z,111.95
2023-04-10T10:05:53.639Z,104.68
2023-04-10T10:09:11.900Z,101.30
2023-04-10T10:12:32.747Z,111.28
2023-04-10T10:15:56.688Z,111.45
2023-04-10T10:19:20.799Z,115.28
2023-04-10T10:22:38.607Z,120.98
2023-04-10T10:25:56.899Z,117.50
2023-04-10T10:29:18.408Z,110.45
2023-04-10T10:32:36.202Z,123.70
2023-04-10T10:35:54.280Z,117.35
2023-04-10T10:39:28.595Z,120.98
2023-04-10T10:42:51.405Z,116.45
2023-04-10T10:46:13.290Z,115.50
2023-04-10T10:49:30.024Z,112.50
2023-04-10T10:52:57.698Z,106.85
2023-04-10T10:56:44.032Z,104.18
2023-04-10T11:00:07.008Z,98.15
2023-04-10T11:03:42.909Z,97.55
2023-04-10T11:07:05.202Z,112.63
2023-04-10T11:10:21.923Z,110.58
2023-04-10T11:13:39.546Z,152.20
2023-04-10T11:16:57.161Z,114.13
2023-04-10T11:20:15.536Z,99.65
2023-04-10T11:23:33.033Z,95.07
2023-04-10T11:26:50.501Z,98.18
2023-04-10T11:30:07.572Z,99.00
2023-04-10T11:33:27.523Z,98.00
2023-04-10T11:36:47.008Z,91.73
2023-04-10T11:40:17.532Z,87.20
2023-04-10T11:43:34.624Z,89.58
2023-04-10T11:46:53.428Z,92.13
2023-04-10T11:50:10.615Z,93.50
2023-04-10T11:53:30.965Z,95.85
2023-04-10T11:56:49.476Z,89.03
2023-04-10T12:00:06.012Z,96.23
2023-04-10T12:03:21.610Z,86.85
2023-04-10T12:06:40.626Z,89.25
2023-04-10T12:10:05.461Z,82.90
2023-04-10T12:13:35.062Z,80.45
2023-04-10T12:16:51.893Z,77.30
2023-04-10T12:20:08.605Z,78.23
2023-04-10T12:23:25.718Z,87.38
2023-04-10T12:26:42.393Z,76.85
2023-04-10T12:30:01.558Z,80.10
2023-04-10T12:36:36.312Z,84.73
2023-04-10T12:39:52.801Z,87.05
2023-04-10T12:43:09.248Z,77.45
2023-04-10T12:46:37.934Z,75.80
2023-04-10T12:50:16.789Z,67.70
2023-04-10T12:53:34.204Z,81.93
2023-04-10T12:56:54.993Z,72.25
2023-04-10T13:00:13.809Z,71.73
2023-04-10T13:03:30.830Z,81.73
2023-04-10T13:06:54.549Z,71.88
2023-04-10T13:10:11.913Z,76.95
2023-04-10T13:13:28.708Z,72.93
2023-04-10T13:16:45.215Z,70.30
2023-04-10T13:20:01.963Z,73.05
2023-04-10T13:23:18.681Z,76.18
2023-04-10T13:26:35.195Z,79.18
2023-04-10T13:29:53.615Z,74.70
2023-04-10T13:33:10.646Z,72.40
2023-04-10T13:36:28.831Z,71.95
2023-04-10T13:39:45.599Z,84.30
2023-04-10T13:43:01.956Z,68.83
2023-04-10T13:46:18.846Z,75.60
2023-04-10T13:49:35.689Z,69.68
2023-04-10T13:52:53.606Z,81.80
2023-04-10T13:56:11.769Z,72.13
2023-04-10T13:59:28.670Z,64.83
2023-04-10T14:02:45.487Z,67.03
2023-04-10T14:06:02.900Z,70.63
2023-04-10T14:09:20.428Z,70.68
2023-04-10T14:12:37.893Z,68.78
2023-04-10T14:15:54.745Z,68.68
2023-04-10T14:19:11.227Z,72.35
2023-04-10T14:22:28.533Z,71.55
2023-04-10T14:25:45.718Z,72.08
2023-04-10T14:29:03.669Z,71.05
2023-04-10T14:32:20.323Z,69.30
2023-04-10T14:35:36.827Z,73.70
2023-04-10T14:38:53.577Z,68.48
2023-04-10T14:42:11.548Z,67.10
2023-04-10T14:45:28.776Z,62.13
2023-04-10T14:48:45.354Z,62.53
2023-04-10T14:52:01.850Z,66.48
2023-04-10T14:55:19.700Z,71.80
2023-04-10T14:58:36.332Z,70.30
2023-04-10T15:01:54.862Z,73.03
2023-04-10T15:05:12.317Z,76.43
2023-04-10T15:08:28.855Z,74.68
2023-04-10T15:11:45.614Z,74.28
2023-04-10T15:15:04.677Z,77.40
2023-04-10T15:18:21.725Z,80.25
2023-04-10T15:21:40.788Z,72.13
2023-04-10T15:24:59.138Z,69.90
2023-04-10T15:28:16.311Z,72.65
2023-04-10T15:31:33.351Z,70.65
2023-04-10T15:34:50.010Z,74.63
2023-04-10T15:38:06.834Z,79.75
2023-04-10T15:41:31.274Z,73.57
2023-04-10T15:44:49.082Z,75.00
2023-04-10T15:51:59.507Z,73.43
2023-04-10T15:55:18.052Z,76.50
2023-04-10T15:58:34.765Z,77.70
2023-04-10T16:01:52.197Z,73.48
2023-04-10T16:05:09.560Z,70.55
2023-04-10T16:08:27.238Z,74.30
2023-04-10T16:11:44.436Z,77.05
2023-04-10T16:15:00.954Z,79.00
2023-04-10T16:18:18.989Z,79.00
2023-04-10T16:21:35.674Z,79.13
2023-04-10T16:24:52.064Z,79.90
2023-04-10T16:28:09.057Z,81.55
2023-04-10T16:31:26.873Z,98.00
2023-04-10T16:34:44.839Z,101.53
2023-04-10T16:38:01.902Z,79.65
2023-04-10T16:41:19.227Z,76.78
2023-04-10T16:44:37.569Z,83.33
2023-04-10T16:47:54.554Z,75.60
2023-04-10T16:51:12.418Z,81.80
2023-04-10T16:54:29.374Z,78.38
2023-04-10T16:57:47.270Z,79.25
2023-04-10T17:01:04.259Z,78.45
2023-04-10T17:04:23.899Z,78.78
2023-04-10T17:07:43.668Z,70.75
2023-04-10T17:11:01.378Z,78.88
2023-04-10T17:14:18.689Z,140.68
2023-04-10T17:17:35.552Z,77.83
2023-04-10T17:20:53.891Z,70.35
2023-04-10T17:24:11.058Z,72.30
2023-04-10T17:27:28.493Z,67.95
2023-04-10T17:30:45.445Z,66.93
2023-04-10T17:34:02.593Z,66.55
2023-04-10T17:37:18.968Z,63.65
2023-04-10T17:40:37.324Z,71.03
2023-04-10T17:43:54.117Z,40.75
2023-04-10T17:47:11.186Z,11.20
2023-04-10T17:50:29.544Z,17.90
2023-04-10T17:53:47.123Z,6.85
2023-04-10T17:57:05.219Z,19.33
2023-04-10T18:00:25.111Z,12.65
2023-04-10T18:03:42.277Z,10.78
2023-04-10T18:06:59.410Z,10.78
2023-04-10T18:10:18.103Z,10.15
2023-04-10T18:13:35.094Z,12.38
2023-04-10T18:16:52.570Z,14.63
2023-04-10T18:20:09.594Z,11.35
2023-04-10T18:23:29.302Z,9.65
2023-04-10T18:30:00.137Z,10.23
2023-04-10T18:33:18.615Z,11.40
2023-04-10T18:36:35.147Z,11.40
2023-04-10T18:39:54.278Z,10.58
2023-04-10T18:43:12.415Z,9.20
2023-04-10T18:46:29.012Z,9.58
2023-04-10T18:49:46.101Z,10.15
2023-04-10T18:53:03.179Z,14.30
2023-04-10T18:56:20.821Z,10.58
2023-04-10T18:59:38.233Z,10.45
2023-04-10T19:02:58.328Z,11.85
2023-04-10T19:06:18.421Z,11.13
2023-04-10T19:09:35.104Z,9.08
2023-04-10T19:12:53.331Z,8.33
2023-04-10T19:16:13.571Z,12.03
2023-04-10T19:19:30.097Z,11.40
2023-04-10T19:22:47.254Z,10.33
2023-04-10T19:26:04.834Z,9.40
2023-04-10T19:29:21.300Z,11.58
2023-04-10T19:32:38.558Z,13.45
2023-04-10T19:35:55.352Z,13.33
2023-04-10T19:39:12.016Z,10.35
2023-04-10T19:42:29.324Z,11.68
2023-04-10T19:45:47.812Z,11.78
2023-04-10T19:49:04.810Z,11.73
2023-04-10T19:52:21.710Z,10.73
2023-04-10T19:55:38.558Z,13.38
2023-04-10T19:58:55.462Z,12.33
2023-04-10T20:02:13.234Z,15.38
2023-04-10T20:05:33.286Z,12.35
2023-04-10T20:08:50.034Z,11.00
2023-04-10T20:12:06.520Z,13.35
2023-04-10T20:15:23.343Z,13.60
2023-04-10T20:18:42.182Z,12.40
2023-04-10T20:22:00.757Z,16.08
2023-04-10T20:25:18.213Z,13.45
2023-04-10T20:28:34.949Z,11.90
2023-04-10T20:31:52.812Z,12.70
2023-04-10T20:35:09.459Z,13.13
2023-04-10T20:38:27.677Z,15.28
2023-04-10T20:41:44.351Z,11.53
2023-04-10T20:45:01.238Z,12.40
2023-04-10T20:48:19.045Z,13.00
2023-04-10T20:51:37.420Z,16.70
2023-04-10T20:54:54.238Z,15.53
2023-04-10T20:58:11.222Z,13.75
2023-04-10T21:01:27.773Z,13.15
2023-04-10T21:04:44.770Z,13.18
2023-04-10T21:08:01.439Z,13.48
2023-04-10T21:11:20.046Z,13.60
2023-04-10T21:14:36.697Z,14.35
2023-04-10T21:17:54.284Z,12.68
2023-04-10T21:21:11.507Z,12.68
2023-04-10T21:24:28.887Z,14.08
2023-04-10T21:27:45.395Z,15.15
2023-04-10T21:31:02.408Z,13.48
2023-04-10T21:34:18.936Z,13.30
2023-04-10T21:37:35.373Z,15.10
2023-04-10T21:40:58.257Z,13.43
2023-04-10T21:44:14.902Z,14.45
2023-04-10T21:47:31.313Z,15.93
2023-04-10T21:50:48.125Z,14.63
2023-04-10T21:54:04.510Z,14.00
2023-04-10T21:57:21.431Z,13.08
2023-04-10T22:00:37.928Z,13.68
2023-04-10T22:03:54.885Z,14.08
2023-04-10T22:07:13.166Z,15.33
2023-04-10T22:10:29.489Z,14.40
2023-04-10T22:13:46.039Z,16.13
2023-04-10T22:17:03.795Z,15.85
2023-04-10T22:20:20.969Z,16.40
2023-04-10T22:23:37.478Z,21.33
2023-04-10T22:26:53.923Z,15.50
2023-04-10T22:30:10.944Z,16.30
2023-04-10T22:33:29.685Z,16.20
2023-04-10T22:36:46.195Z,17.98
2023-04-10T22:40:02.713Z,17.50
2023-04-10T22:43:20.429Z,15.13
2023-04-10T22:46:37.242Z,17.43
2023-04-10T22:49:54.085Z,15.75
2023-04-10T22:53:10.567Z,16.80
2023-04-10T22:56:30.379Z,17.23
2023-04-10T22:59:47.183Z,16.05
2023-04-10T23:03:03.685Z,14.48
2023-04-10T23:06:20.788Z,16.55
2023-04-10T23:09:37.906Z,15.85
2023-04-10T23:12:54.404Z,17.25
2023-04-10T23:16:11.078Z,16.53
2023-04-10T23:19:29.028Z,16.98
2023-04-10T23:22:45.412Z,16.18
2023-04-10T23:26:12.282Z,16.00
2023-04-10T23:29:29.106Z,15.80
2023-04-10T23:32:45.777Z,15.43
2023-04-10T23:36:03.310Z,14.55
2023-04-10T23:39:21.219Z,12.53
2023-04-10T23:42:37.575Z,14.05
2023-04-10T23:45:54.190Z,13.93
2023-04-10T23:49:10.647Z,14.25
2023-04-10T23:52:27.198Z,13.83
2023-04-10T23:55:44.318Z,11.33
2023-04-10T23:59:01.330Z,16.65
